Russell, Mississippi
Current Conditions -  °F | °C
As of 9:58 PM on Sunday 25 Jan 2015 (Local Time) from KMEI Reporting Station
Few Clouds Few Clouds  
Wind Chill:   Ceiling: Unl
Heat Index:   Visibility: 10mi
Dew Point:   Wind: 8mph
Humidity: 64%   Direction: 320°NW
Pressure: 29.88"   Gusts: NA
Location:  32.3221°N, 88.5771°W
Report Text: KMEI 260358Z 32007KT 10SM FEW050 09/03 A2988 RMK AO2 SLP117 T00940028
Loading
Personal Weather Stations






























Interactive Weather Map New forecast layout! Learn more

10-Day Weather Forecast

Advertisements
Track Severe Weather on mobile